Terminal Aerodrome Forecast
Issued by NWS Albany, NY

Home | Current Version | Previous Version | Text Only | Print | Product List | Glossary On
Versions: 1 2 3 4 5 6 7 8 9 10 11 12 13 14 15 16 17 18 19 20 21 22 23 24 25 26 27 28
000
FTUS41 KALY 021047 AAE
TAFGFL
TAF AMD
KGFL 021047Z 0211/0306 00000KT 1 1/2SM BR OVC007
      TEMPO 0211/0214 5SM BR SCT006 OVC010
     FM021400 VRB03KT 3SM -RA BR OVC009
     FM021700 09003KT 2SM -RA BR OVC007
     FM022100 02005KT 4SM -DZ BR OVC009
     FM030400 35002KT P6SM OVC007=

USA.gov is the U.S. government's official web portal to all federal, state and local government web resources and services.